Time;durP1;ratioP1;P1;durP2;ratioP2;P2;SDS_P1;SDS_P2;PMS_P1;PMS_P2;Temp;Humidity;BMP_temperature;BMP_pressure;BME280_temperature;BME280_humidity;BME280_pressure;Samples;Min_cycle;Max_cycle;Signal;HPM_P1;HPM_P2
2021/04/15 00:00:34;;;;;;;23.87;4.90;;;4.10;99.90;;;;;;5114919;28;20961;-65
2021/04/15 00:03:03;;;;;;;23.13;4.30;;;4.00;99.90;;;;;;5112493;28;20454;-63
2021/04/15 00:05:31;;;;;;;24.23;4.20;;;3.80;99.90;;;;;;5093922;28;20543;-66
2021/04/15 00:07:58;;;;;;;23.60;4.27;;;3.70;99.90;;;;;;5095812;28;20851;-62
2021/04/15 00:10:27;;;;;;;24.03;4.50;;;3.60;99.90;;;;;;5114750;28;20825;-63
2021/04/15 00:12:53;;;;;;;26.53;4.60;;;3.50;99.90;;;;;;5099165;28;20464;-64
2021/04/15 00:15:20;;;;;;;26.13;5.47;;;3.40;99.90;;;;;;5094147;28;20457;-67
2021/04/15 00:17:46;;;;;;;30.53;5.97;;;3.30;99.90;;;;;;5109966;28;20423;-62
2021/04/15 00:20:13;;;;;;;30.40;5.20;;;3.20;99.90;;;;;;5114805;28;20825;-65
2021/04/15 00:22:40;;;;;;;27.53;5.50;;;3.20;99.90;;;;;;5098789;28;20537;-63
2021/04/15 00:25:07;;;;;;;25.40;4.93;;;3.20;99.90;;;;;;5094088;28;20484;-63
2021/04/15 00:27:35;;;;;;;27.70;5.10;;;3.30;99.90;;;;;;5107725;28;20452;-62
2021/04/15 00:30:01;;;;;;;28.40;5.33;;;3.30;99.90;;;;;;5112937;28;20453;-62
2021/04/15 00:32:27;;;;;;;29.13;5.10;;;3.30;99.90;;;;;;5113325;28;20541;-63
2021/04/15 00:34:54;;;;;;;29.23;5.70;;;3.30;99.90;;;;;;5114171;28;20938;-65
2021/04/15 00:37:20;;;;;;;28.40;5.57;;;3.30;99.90;;;;;;5097924;28;20477;-64
2021/04/15 00:39:46;;;;;;;28.23;4.90;;;3.30;99.90;;;;;;5093313;28;20424;-64
2021/04/15 00:42:13;;;;;;;32.93;5.77;;;3.30;99.90;;;;;;5101745;28;20450;-65
2021/04/15 00:44:40;;;;;;;31.50;5.73;;;3.30;99.90;;;;;;5093532;28;20482;-63
2021/04/15 00:47:10;;;;;;;35.63;6.43;;;3.30;99.90;;;;;;5093475;28;20862;-62
2021/04/15 00:49:40;;;;;;;31.37;6.10;;;3.30;99.90;;;;;;5093573;28;20489;-63
2021/04/15 00:52:09;;;;;;;23.63;5.70;;;3.20;99.90;;;;;;5104818;28;20444;-63
2021/04/15 00:54:45;;;;;;;29.10;5.90;;;3.20;99.90;;;;;;5113825;28;20506;-65
2021/04/15 00:57:17;;;;;;;31.83;6.10;;;3.10;99.90;;;;;;5098685;28;20450;-63
2021/04/15 00:59:44;;;;;;;30.33;6.07;;;3.20;99.90;;;;;;5093646;28;20465;-63
2021/04/15 01:02:13;;;;;;;34.90;6.57;;;3.10;99.90;;;;;;5093370;28;20443;-63
2021/04/15 01:04:39;;;;;;;34.53;7.20;;;3.10;99.90;;;;;;5092375;28;20488;-65
2021/04/15 01:07:07;;;;;;;31.60;6.30;;;3.00;99.90;;;;;;5103876;28;20449;-66
2021/04/15 01:09:33;;;;;;;34.03;7.27;;;3.00;99.90;;;;;;5100912;28;20930;-63
2021/04/15 01:12:15;;;;;;;34.13;6.90;;;3.00;99.90;;;;;;5102644;28;20518;-63
2021/04/15 01:15:01;;;;;;;37.03;7.07;;;2.90;99.90;;;;;;5092951;28;20419;-65
2021/04/15 01:17:31;;;;;;;39.47;8.43;;;2.90;99.90;;;;;;5092420;28;20516;-63
2021/04/15 01:20:57;;;;;;;39.53;8.23;;;2.90;99.90;;;;;;5092717;28;20516;-66
2021/04/15 01:23:31;;;;;;;42.57;9.40;;;2.80;99.90;;;;;;5104251;28;20598;-63
2021/04/15 01:26:38;;;;;;;40.63;8.57;;;2.90;99.90;;;;;;5112787;28;20470;-63
2021/04/15 01:29:24;;;;;;;40.73;8.20;;;3.00;99.90;;;;;;5094025;28;20539;-63
2021/04/15 01:32:04;;;;;;;40.93;9.20;;;3.10;99.90;;;;;;5092720;28;20825;-66
2021/04/15 01:34:39;;;;;;;38.87;9.00;;;3.20;99.90;;;;;;5092810;28;20478;-63
2021/04/15 01:37:15;;;;;;;41.93;8.50;;;3.30;99.90;;;;;;5095182;28;20462;-66
2021/04/15 01:39:46;;;;;;;43.20;8.93;;;3.40;99.90;;;;;;5113567;27;20474;-63
2021/04/15 01:42:16;;;;;;;36.93;9.83;;;3.50;99.90;;;;;;5110637;28;20465;-63
2021/04/15 01:44:49;;;;;;;36.50;9.10;;;3.60;99.90;;;;;;5092785;28;20490;-63
2021/04/15 01:47:20;;;;;;;38.83;10.60;;;3.60;99.90;;;;;;5111857;28;20505;-66
2021/04/15 01:49:53;;;;;;;42.50;9.67;;;3.70;99.90;;;;;;5113159;28;20446;-63
2021/04/15 01:52:20;;;;;;;43.10;10.10;;;3.70;99.90;;;;;;5104628;28;20446;-63
2021/04/15 01:54:52;;;;;;;41.30;10.40;;;3.80;99.90;;;;;;5092655;28;20497;-65
2021/04/15 01:57:25;;;;;;;45.33;10.70;;;3.80;99.90;;;;;;5099751;28;20452;-62
2021/04/15 02:00:00;;;;;;;41.20;11.20;;;3.80;99.90;;;;;;5112881;28;20449;-64
2021/04/15 02:02:30;;;;;;;42.10;10.20;;;3.70;99.90;;;;;;5108134;28;20453;-66
2021/04/15 02:05:03;;;;;;;49.57;12.97;;;3.70;99.90;;;;;;5112669;28;20462;-65
2021/04/15 02:07:34;;;;;;;44.63;10.97;;;3.70;99.90;;;;;;5111414;28;20548;-63
2021/04/15 02:10:03;;;;;;;52.10;14.00;;;3.70;99.90;;;;;;5111837;28;20455;-65
2021/04/15 02:12:31;;;;;;;45.53;12.90;;;3.70;99.90;;;;;;5091939;28;20533;-63
2021/04/15 02:15:01;;;;;;;45.73;13.13;;;3.60;99.90;;;;;;5091954;28;20460;-63
2021/04/15 02:17:32;;;;;;;46.37;13.40;;;3.60;99.90;;;;;;5110030;28;20453;-62
2021/04/15 02:19:59;;;;;;;47.23;12.23;;;3.50;99.90;;;;;;5110710;28;20441;-63
2021/04/15 02:22:36;;;;;;;45.07;12.90;;;3.40;99.90;;;;;;5092648;28;20826;-63
2021/04/15 02:25:08;;;;;;;47.70;13.23;;;3.30;99.90;;;;;;5091920;28;20552;-64
2021/04/15 02:27:41;;;;;;;50.40;14.53;;;3.20;99.90;;;;;;5091878;28;20442;-65
2021/04/15 02:30:16;;;;;;;52.30;14.80;;;3.10;99.90;;;;;;5091820;28;20427;-65
2021/04/15 02:32:46;;;;;;;49.90;12.20;;;3.10;99.90;;;;;;5092211;28;20424;-62
2021/04/15 02:35:21;;;;;;;47.13;12.63;;;3.10;99.90;;;;;;5104751;28;20435;-63
2021/04/15 02:37:50;;;;;;;47.37;14.30;;;3.00;99.90;;;;;;5101418;28;20488;-63
2021/04/15 02:40:22;;;;;;;54.53;14.10;;;3.10;99.90;;;;;;5091846;28;20429;-63
2021/04/15 02:42:49;;;;;;;48.63;12.47;;;3.10;99.90;;;;;;5110863;28;20509;-64
2021/04/15 02:45:26;;;;;;;47.40;12.57;;;3.10;99.90;;;;;;5112407;28;20490;-63
2021/04/15 02:47:57;;;;;;;51.60;14.30;;;3.20;99.90;;;;;;5111956;28;20954;-63
2021/04/15 02:50:26;;;;;;;48.33;13.73;;;3.20;99.90;;;;;;5112303;28;20421;-63
2021/04/15 02:53:00;;;;;;;43.03;11.03;;;3.20;99.90;;;;;;5102087;28;20417;-62
2021/04/15 02:55:31;;;;;;;46.50;11.30;;;3.20;99.90;;;;;;5091874;28;20446;-63
2021/04/15 02:58:04;;;;;;;44.23;12.10;;;3.20;99.90;;;;;;5091632;28;20971;-64
2021/04/15 03:00:37;;;;;;;45.57;11.93;;;3.30;99.90;;;;;;5095001;28;20449;-64
2021/04/15 03:03:07;;;;;;;45.03;11.60;;;3.40;99.90;;;;;;5112256;28;20472;-63
2021/04/15 03:05:39;;;;;;;44.23;12.93;;;3.40;99.90;;;;;;5111461;28;20470;-63
2021/04/15 03:08:08;;;;;;;47.70;12.70;;;3.40;99.90;;;;;;5103043;28;20452;-65
2021/04/15 03:10:38;;;;;;;44.93;13.47;;;3.50;99.90;;;;;;5104989;28;20459;-63
2021/04/15 03:13:09;;;;;;;44.03;14.50;;;3.50;99.90;;;;;;5109419;28;20534;-65
2021/04/15 03:15:41;;;;;;;49.87;16.00;;;3.50;99.90;;;;;;5108452;28;20729;-63
2021/04/15 03:18:13;;;;;;;44.83;12.93;;;3.50;99.90;;;;;;5105064;28;20455;-62
2021/04/15 03:20:45;;;;;;;48.93;14.80;;;3.50;99.90;;;;;;5101523;28;21031;-64
2021/04/15 03:23:22;;;;;;;48.63;14.60;;;3.40;99.90;;;;;;5102489;28;20465;-63
2021/04/15 03:25:52;;;;;;;49.50;14.23;;;3.40;99.90;;;;;;5100392;28;20464;-63
2021/04/15 03:28:24;;;;;;;48.60;16.03;;;3.40;99.90;;;;;;5112337;28;20449;-63
2021/04/15 03:30:56;;;;;;;47.53;15.33;;;3.30;99.90;;;;;;5114554;28;20421;-66
2021/04/15 03:33:28;;;;;;;48.63;15.30;;;3.20;99.90;;;;;;5107987;28;20442;-62
2021/04/15 03:36:02;;;;;;;51.03;15.53;;;3.20;99.90;;;;;;5114304;28;20523;-63
2021/04/15 03:38:32;;;;;;;51.37;15.00;;;3.10;99.90;;;;;;5100152;28;20432;-66
2021/04/15 03:41:04;;;;;;;47.60;13.67;;;3.00;99.90;;;;;;5095333;28;20545;-63
2021/04/15 03:43:34;;;;;;;49.63;13.73;;;2.90;99.90;;;;;;5094986;28;20442;-63
2021/04/15 03:46:13;;;;;;;49.93;14.30;;;2.80;99.90;;;;;;5094756;28;20485;-63
2021/04/15 03:48:46;;;;;;;56.90;15.93;;;2.80;99.90;;;;;;5094437;28;20559;-63
2021/04/15 03:51:16;;;;;;;36.73;5.60;;;2.70;99.90;;;;;;5107116;28;20542;-56
2021/04/15 03:53:45;;;;;;;40.20;7.67;;;3.70;99.90;;;;;;5106301;28;20445;-56
2021/04/15 03:56:18;;;;;;;55.10;19.93;;;6.00;99.90;;;;;;5104921;28;20560;-63
2021/04/15 03:58:49;;;;;;;55.67;18.47;;;5.80;99.90;;;;;;5111337;28;21018;-62
2021/04/15 04:01:21;;;;;;;56.63;22.70;;;5.10;99.90;;;;;;5114100;28;20889;-62
2021/04/15 04:03:55;;;;;;;57.87;27.00;;;4.60;99.90;;;;;;5115027;28;20925;-62
2021/04/15 04:06:25;;;;;;;56.87;22.50;;;4.20;99.90;;;;;;5095309;28;20483;-62
2021/04/15 04:08:55;;;;;;;57.07;25.07;;;3.90;99.90;;;;;;5095236;28;20448;-63
2021/04/15 04:14:12;;;;;;;60.20;28.63;;;3.30;99.90;;;;;;5091214;28;20822;-62
2021/04/15 04:16:44;;;;;;;59.03;23.73;;;3.00;99.90;;;;;;5094061;28;20455;-63
2021/04/15 04:19:16;;;;;;;60.10;23.73;;;2.80;99.90;;;;;;5094195;28;20427;-62
2021/04/15 04:21:48;;;;;;;58.60;20.70;;;2.60;99.90;;;;;;5095193;28;20512;-63
2021/04/15 04:24:21;;;;;;;59.20;25.83;;;2.50;99.90;;;;;;5094151;28;20541;-62
2021/04/15 04:26:51;;;;;;;59.72;25.40;;;2.30;99.90;;;;;;5095123;28;20909;-62
2021/04/15 04:29:35;;;;;;;56.73;21.87;;;2.20;99.90;;;;;;5102228;27;20228;-63
2021/04/15 04:32:07;;;;;;;59.88;22.88;;;2.10;99.90;;;;;;5114224;28;20858;-62
2021/04/15 04:34:33;;;;;;;58.60;24.17;;;2.00;99.90;;;;;;5114821;28;20245;-62
2021/04/15 04:37:02;;;;;;;61.17;21.45;;;1.90;99.90;;;;;;5113644;28;20523;-64
2021/04/15 04:39:29;;;;;;;61.00;19.13;;;1.80;99.90;;;;;;5114086;28;20330;-63
2021/04/15 04:42:05;;;;;;;56.75;18.38;;;1.80;99.90;;;;;;5113932;28;20516;-61
2021/04/15 04:44:39;;;;;;;57.00;16.13;;;1.70;99.90;;;;;;5114052;28;20206;-63
2021/04/15 04:47:11;;;;;;;70.38;18.83;;;1.70;99.90;;;;;;5111482;28;20576;-63
2021/04/15 04:49:41;;;;;;;62.93;17.30;;;1.60;99.90;;;;;;5114050;28;20330;-63
2021/04/15 04:52:11;;;;;;;57.85;16.48;;;1.60;99.90;;;;;;5113922;28;20453;-62
2021/04/15 04:54:39;;;;;;;58.10;14.83;;;1.60;99.90;;;;;;5113795;28;20216;-63
2021/04/15 04:57:11;;;;;;;55.55;16.33;;;1.60;99.90;;;;;;5113333;28;20416;-63
2021/04/15 04:59:43;;;;;;;55.97;15.43;;;1.60;99.90;;;;;;5113861;28;20572;-63
2021/04/15 05:02:13;;;;;;;56.65;15.73;;;1.60;99.90;;;;;;5113826;28;20213;-62
2021/04/15 05:04:39;;;;;;;62.08;17.95;;;1.60;99.90;;;;;;5097976;28;20209;-63
2021/04/15 05:07:11;;;;;;;56.90;15.55;;;1.60;99.90;;;;;;5093085;28;20225;-62
2021/04/15 05:09:40;;;;;;;59.55;18.90;;;1.60;99.90;;;;;;5097592;28;20194;-64
2021/04/15 05:12:13;;;;;;;61.72;18.27;;;1.60;99.90;;;;;;5100816;28;20197;-63
2021/04/15 05:14:40;;;;;;;63.85;18.75;;;1.50;99.90;;;;;;5093312;28;20614;-63
2021/04/15 05:17:21;;;;;;;64.05;22.67;;;1.60;99.90;;;;;;5095644;28;20209;-63
2021/04/15 05:19:47;;;;;;;60.58;16.88;;;1.60;99.90;;;;;;5111580;28;20194;-62
2021/04/15 05:22:22;;;;;;;58.42;19.45;;;1.70;99.90;;;;;;5108811;28;20200;-63
2021/04/15 05:24:53;;;;;;;61.78;23.88;;;1.70;99.90;;;;;;5093257;28;20233;-62
2021/04/15 05:27:21;;;;;;;57.28;20.77;;;1.80;99.90;;;;;;5092999;28;20202;-62
2021/04/15 05:29:51;;;;;;;61.13;17.55;;;1.80;99.90;;;;;;5104704;28;20278;-64
2021/04/15 05:32:19;;;;;;;58.08;20.25;;;1.90;99.90;;;;;;5108753;28;20274;-63
2021/04/15 05:34:48;;;;;;;57.88;19.15;;;2.00;99.90;;;;;;5093038;28;20207;-64
2021/04/15 05:37:17;;;;;;;58.90;19.25;;;2.00;99.90;;;;;;5093778;28;20563;-62
2021/04/15 05:39:44;;;;;;;61.97;21.83;;;2.10;99.90;;;;;;5092701;28;20596;-62
2021/04/15 05:42:18;;;;;;;59.10;19.48;;;2.10;99.90;;;;;;5094754;28;20203;-64
2021/04/15 05:44:47;;;;;;;60.88;20.25;;;2.20;99.90;;;;;;5093120;28;20677;-63
2021/04/15 05:47:17;;;;;;;59.55;21.70;;;2.30;99.90;;;;;;5102897;28;20573;-63
2021/04/15 05:49:48;;;;;;;59.60;20.40;;;2.30;99.90;;;;;;5106053;28;20663;-62
2021/04/15 05:52:26;;;;;;;58.77;17.70;;;2.30;99.90;;;;;;5100258;28;20481;-61
2021/04/15 05:54:56;;;;;;;58.15;20.23;;;2.40;99.90;;;;;;5092309;28;20493;-64
2021/04/15 05:57:28;;;;;;;60.43;23.40;;;2.40;99.90;;;;;;5091837;28;20202;-62
2021/04/15 06:00:07;;;;;;;55.53;21.48;;;2.50;99.90;;;;;;5104046;28;20420;-63
2021/04/15 06:02:47;;;;;;;59.60;21.37;;;2.60;99.90;;;;;;5109936;28;20195;-62
2021/04/15 06:05:19;;;;;;;67.83;26.10;;;2.70;99.90;;;;;;5112081;28;20484;-63
2021/04/15 06:07:48;;;;;;;60.33;25.13;;;2.80;99.90;;;;;;5112383;28;20447;-62
2021/04/15 06:10:17;;;;;;;60.80;21.50;;;2.80;99.90;;;;;;5106810;28;20223;-62
2021/04/15 06:12:51;;;;;;;61.03;23.87;;;2.90;99.90;;;;;;5112704;28;20502;-63
2021/04/15 06:15:22;;;;;;;60.33;23.20;;;2.90;99.90;;;;;;5112185;28;20436;-62
2021/04/15 06:17:56;;;;;;;60.73;23.73;;;3.00;99.90;;;;;;5112406;28;20427;-63
2021/04/15 06:20:28;;;;;;;61.80;30.70;;;3.00;99.90;;;;;;5110012;28;20599;-64
2021/04/15 06:22:58;;;;;;;60.80;24.63;;;3.10;99.90;;;;;;5112183;28;20491;-63
2021/04/15 06:25:28;;;;;;;67.63;30.00;;;3.10;99.90;;;;;;5106629;28;20489;-63
2021/04/15 06:27:58;;;;;;;69.67;27.43;;;3.20;99.90;;;;;;5102630;28;20811;-64
2021/04/15 06:30:29;;;;;;;62.37;25.40;;;3.30;99.90;;;;;;5102995;28;20412;-63
2021/04/15 06:32:59;;;;;;;67.20;30.47;;;3.40;99.90;;;;;;5100291;28;20825;-63
2021/04/15 06:35:33;;;;;;;61.97;27.80;;;3.40;99.90;;;;;;5099240;28;20426;-63
2021/04/15 06:38:06;;;;;;;68.83;32.73;;;3.60;99.90;;;;;;5090516;28;20442;-63
2021/04/15 06:41:01;;;;;;;71.37;41.57;;;3.70;99.90;;;;;;5100484;28;20406;-62
2021/04/15 06:43:55;;;;;;;64.50;30.90;;;3.70;99.90;;;;;;5099859;28;20452;-62
2021/04/15 06:46:37;;;;;;;70.83;42.63;;;3.80;99.90;;;;;;5102639;28;20824;-63
2021/04/15 06:49:29;;;;;;;69.20;37.67;;;4.00;99.90;;;;;;5102450;28;20460;-64
2021/04/15 06:52:05;;;;;;;68.50;39.83;;;4.00;99.90;;;;;;5101730;28;20436;-62
2021/04/15 06:54:37;;;;;;;77.67;63.03;;;4.00;99.90;;;;;;5091211;28;20538;-64
2021/04/15 06:57:33;;;;;;;76.97;50.33;;;4.20;99.90;;;;;;5090139;28;21021;-64
2021/04/15 07:00:12;;;;;;;82.63;71.50;;;4.30;99.90;;;;;;5101048;28;20454;-64
2021/04/15 07:03:05;;;;;;;77.53;65.13;;;4.40;99.90;;;;;;5101220;28;20881;-63
2021/04/15 07:05:36;;;;;;;75.97;51.47;;;4.60;99.90;;;;;;5103665;28;20872;-64
2021/04/15 07:08:07;;;;;;;75.77;60.13;;;4.80;99.90;;;;;;5105548;28;20445;-63
2021/04/15 07:10:58;;;;;;;79.53;70.47;;;5.10;99.90;;;;;;5103364;28;20456;-64
2021/04/15 07:13:49;;;;;;;81.50;55.90;;;5.30;99.90;;;;;;5101525;28;20529;-64
2021/04/15 07:16:49;;;;;;;52.37;24.97;;;5.70;99.90;;;;;;5107294;28;20952;-63
2021/04/15 07:19:53;;;;;;;77.83;62.87;;;6.50;99.90;;;;;;5101600;28;20459;-64
2021/04/15 07:22:58;;;;;;;63.43;34.20;;;6.40;99.90;;;;;;5100381;28;20559;-64
2021/04/15 07:25:48;;;;;;;50.37;19.07;;;6.70;99.90;;;;;;5101955;28;20577;-62
2021/04/15 07:28:45;;;;;;;24.20;7.43;;;7.50;99.90;;;;;;5110675;28;20453;-63
2021/04/15 07:31:27;;;;;;;55.50;48.43;;;8.30;99.90;;;;;;5104475;28;20492;-63
2021/04/15 07:34:24;;;;;;;54.53;37.73;;;8.60;99.90;;;;;;5104709;28;20449;-63
2021/04/15 07:37:13;;;;;;;40.70;14.20;;;8.10;99.90;;;;;;5105163;28;20529;-63
2021/04/15 07:40:14;;;;;;;49.33;15.43;;;8.30;99.90;;;;;;5109938;28;20506;-63
2021/04/15 07:42:50;;;;;;;21.13;6.80;;;9.40;99.90;;;;;;5109370;28;20456;-64
2021/04/15 07:45:23;;;;;;;13.60;5.63;;;9.80;99.90;;;;;;5105948;28;20483;-64
2021/04/15 07:48:13;;;;;;;10.50;5.10;;;9.40;99.90;;;;;;5112869;28;20449;-63
2021/04/15 07:51:17;;;;;;;9.80;4.33;;;10.90;99.90;;;;;;5109588;28;20453;-63
2021/04/15 07:54:22;;;;;;;11.33;5.70;;;13.00;99.90;;;;;;5090550;27;20543;-63
2021/04/15 07:57:13;;;;;;;14.17;5.63;;;12.50;99.90;;;;;;5063314;28;20806;-63
2021/04/15 08:00:00;;;;;;;11.73;4.60;;;13.30;99.90;;;;;;5095872;28;20450;-64
2021/04/15 08:02:42;;;;;;;12.70;5.10;;;13.90;99.90;;;;;;5103367;28;20443;-63
2021/04/15 08:05:41;;;;;;;13.37;3.67;;;14.50;99.90;;;;;;5106989;28;20522;-64
2021/04/15 08:08:40;;;;;;;10.70;3.90;;;15.70;99.90;;;;;;5071699;28;20948;-65
2021/04/15 08:11:30;;;;;;;9.97;3.40;;;14.90;99.90;;;;;;5104414;27;20865;-64
2021/04/15 08:14:18;;;;;;;8.47;3.07;;;16.40;99.40;;;;;;5100358;28;20518;-64
2021/04/15 08:17:20;;;;;;;10.90;3.83;;;17.30;99.00;;;;;;5104812;28;20453;-63
2021/04/15 08:20:05;;;;;;;9.53;3.57;;;18.40;97.20;;;;;;5107613;28;20450;-65
2021/04/15 08:23:02;;;;;;;8.00;3.30;;;19.30;90.90;;;;;;5113779;28;20441;-64
2021/04/15 08:25:40;;;;;;;8.77;3.30;;;19.70;91.00;;;;;;5111165;28;21017;-63
2021/04/15 08:28:32;;;;;;;8.73;3.10;;;18.50;90.30;;;;;;5095561;28;20565;-63
2021/04/15 08:31:09;;;;;;;7.40;2.90;;;18.80;84.40;;;;;;5110638;28;20501;-64
2021/04/15 08:34:00;;;;;;;11.90;4.40;;;18.80;75.60;;;;;;5114102;28;20451;-63
2021/04/15 08:37:15;;;;;;;10.00;3.43;;;18.20;76.60;;;;;;5107139;28;20509;-65
2021/04/15 08:39:53;;;;;;;8.00;2.50;;;16.40;78.10;;;;;;5077594;28;21126;-63
2021/04/15 08:42:39;;;;;;;11.07;2.37;;;15.70;76.00;;;;;;5096966;27;20448;-64
2021/04/15 08:45:19;;;;;;;10.93;3.40;;;16.50;78.70;;;;;;5094876;28;20492;-65
2021/04/15 08:47:55;;;;;;;7.77;3.43;;;16.80;78.10;;;;;;5105322;28;20441;-64
2021/04/15 08:50:36;;;;;;;8.90;3.50;;;18.60;78.60;;;;;;5107280;28;20484;-65
2021/04/15 08:53:14;;;;;;;8.00;2.70;;;16.30;77.40;;;;;;5110320;28;20951;-63
2021/04/15 08:55:45;;;;;;;8.90;2.50;;;14.90;77.70;;;;;;5102463;28;20974;-64
2021/04/15 08:58:33;;;;;;;11.37;2.53;;;13.90;77.40;;;;;;5111250;28;20503;-65
2021/04/15 09:01:09;;;;;;;12.70;2.80;;;14.40;83.70;;;;;;5093291;28;20865;-64
2021/04/15 09:03:42;;;;;;;8.70;3.13;;;16.40;85.00;;;;;;5093502;28;20536;-64
2021/04/15 09:06:23;;;;;;;10.60;2.43;;;18.00;82.60;;;;;;5092678;28;20565;-64
2021/04/15 09:09:24;;;;;;;7.10;1.70;;;19.50;75.60;;;;;;5093524;28;20438;-63
2021/04/15 09:12:05;;;;;;;7.83;2.40;;;20.80;75.10;;;;;;5093414;28;20453;-63
2021/04/15 09:14:43;;;;;;;7.50;2.03;;;21.60;68.20;;;;;;5093025;28;20818;-62
2021/04/15 09:17:14;;;;;;;7.80;2.57;;;22.30;65.20;;;;;;5100353;28;20462;-66
2021/04/15 09:19:46;;;;;;;7.60;2.10;;;;;;;;;;5107643;28;20445;-63
2021/04/15 09:22:32;;;;;;;5.73;1.87;;;23.00;64.30;;;;;;5112733;28;20481;-62
2021/04/15 09:25:04;;;;;;;11.30;3.10;;;24.50;56.40;;;;;;5106780;28;20636;-62
2021/04/15 09:27:44;;;;;;;5.23;1.60;;;24.50;57.50;;;;;;5111244;28;20537;-61
2021/04/15 09:30:34;;;;;;;7.30;2.40;;;24.00;55.10;;;;;;5112363;28;20449;-64
2021/04/15 09:33:08;;;;;;;5.10;1.50;;;22.40;51.10;;;;;;5112563;28;20544;-62
2021/04/15 09:35:56;;;;;;;5.63;1.80;;;19.50;51.60;;;;;;5104731;28;20440;-62
2021/04/15 09:39:08;;;;;;;7.63;1.67;;;17.40;53.80;;;;;;5104154;28;20457;-64
2021/04/15 09:42:01;;;;;;;5.97;1.80;;;15.40;55.80;;;;;;5098992;28;20457;-63
2021/04/15 09:44:50;;;;;;;8.43;1.93;;;14.50;59.20;;;;;;5093855;28;20469;-65
2021/04/15 09:47:55;;;;;;;8.33;2.57;;;15.50;60.00;;;;;;5088142;28;20965;-64
2021/04/15 09:50:26;;;;;;;5.80;1.80;;;16.30;58.60;;;;;;5102686;28;20540;-66
2021/04/15 09:53:09;;;;;;;6.70;1.90;;;15.50;61.80;;;;;;5110348;28;20911;-64
2021/04/15 09:56:06;;;;;;;10.60;2.13;;;17.20;60.30;;;;;;5091816;28;20476;-65
2021/04/15 09:58:41;;;;;;;7.80;2.70;;;19.60;59.50;;;;;;5102203;28;20455;-64
2021/04/15 10:01:13;;;;;;;9.37;2.00;;;17.60;56.80;;;;;;5101871;28;20448;-62
2021/04/15 10:03:48;;;;;;;5.70;2.20;;;16.80;58.20;;;;;;5102674;28;20442;-64
2021/04/15 10:06:23;;;;;;;5.90;1.90;;;16.60;59.80;;;;;;5097183;28;20503;-63
2021/04/15 10:09:26;;;;;;;7.30;2.10;;;19.50;59.10;;;;;;5092602;28;20813;-62
2021/04/15 10:12:09;;;;;;;5.27;1.97;;;20.80;55.20;;;;;;5106115;27;20456;-63
2021/04/15 10:14:49;;;;;;;6.90;2.67;;;21.10;55.70;;;;;;5103338;28;20441;-64
2021/04/15 10:17:26;;;;;;;7.77;2.50;;;22.40;56.10;;;;;;5101701;28;20446;-63
2021/04/15 10:20:33;;;;;;;8.20;2.70;;;23.20;54.90;;;;;;5106919;28;20457;-64
2021/04/15 10:23:18;;;;;;;6.30;2.20;;;24.60;55.80;;;;;;5103710;28;20453;-65
2021/04/15 10:25:47;;;;;;;7.80;2.40;;;22.40;51.40;;;;;;5104806;28;20484;-62
2021/04/15 10:28:35;;;;;;;6.70;2.67;;;20.30;52.00;;;;;;5097653;28;20437;-64
2021/04/15 10:31:28;;;;;;;7.17;2.23;;;21.50;54.70;;;;;;5091608;28;20443;-63
2021/04/15 10:34:46;;;;;;;7.30;2.40;;;24.50;54.10;;;;;;5094998;28;20560;-63
2021/04/15 10:37:28;;;;;;;7.63;2.13;;;25.70;50.00;;;;;;5104275;28;20518;-64
2021/04/15 10:40:30;;;;;;;8.00;2.30;;;25.90;47.60;;;;;;5102650;28;20450;-63
2021/04/15 10:43:38;;;;;;;7.27;2.17;;;26.00;48.40;;;;;;5101539;28;20449;-62
2021/04/15 10:46:34;;;;;;;5.90;2.30;;;22.70;45.80;;;;;;5097640;28;20477;-62
2021/04/15 10:49:09;;;;;;;7.47;2.10;;;19.80;48.30;;;;;;5101296;28;20970;-62
2021/04/15 10:51:37;;;;;;;5.70;2.00;;;17.60;50.50;;;;;;5103375;28;20448;-63
2021/04/15 10:54:20;;;;;;;6.57;2.17;;;17.00;51.80;;;;;;5103143;28;20500;-64
2021/04/15 10:56:49;;;;;;;8.40;2.87;;;17.70;52.00;;;;;;5101934;28;20448;-64
2021/04/15 10:59:32;;;;;;;6.17;2.17;;;19.80;53.40;;;;;;5102870;28;20499;-64
2021/04/15 11:02:28;;;;;;;6.43;2.37;;;20.90;51.80;;;;;;5103782;28;20460;-64
2021/04/15 11:05:16;;;;;;;10.30;2.70;;;20.10;50.00;;;;;;5103809;28;20510;-64
2021/04/15 11:07:47;;;;;;;5.97;2.47;;;18.90;50.50;;;;;;5105328;28;20456;-64
2021/04/15 11:10:22;;;;;;;7.40;2.93;;;20.70;53.70;;;;;;5101033;28;20536;-63
2021/04/15 11:12:48;;;;;;;8.53;3.40;;;22.70;52.70;;;;;;5102892;28;20805;-63
2021/04/15 11:15:22;;;;;;;9.67;4.70;;;22.30;49.20;;;;;;5106068;28;20528;-63
2021/04/15 11:17:54;;;;;;;12.73;3.80;;;20.30;48.40;;;;;;5105099;28;20452;-63
2021/04/15 11:20:28;;;;;;;9.63;3.40;;;18.40;50.80;;;;;;5103118;28;20445;-64
2021/04/15 11:23:05;;;;;;;10.13;3.20;;;19.10;52.70;;;;;;5105988;28;20441;-63
2021/04/15 11:25:35;;;;;;;8.97;3.00;;;21.20;52.80;;;;;;5104705;28;20493;-64
2021/04/15 11:28:10;;;;;;;6.03;2.97;;;22.40;51.10;;;;;;5107788;28;20450;-64
2021/04/15 11:30:43;;;;;;;9.83;3.67;;;23.70;49.10;;;;;;5107344;28;20494;-64
2021/04/15 11:33:12;;;;;;;6.07;3.07;;;21.70;48.20;;;;;;5107145;28;20946;-64
2021/04/15 11:35:42;;;;;;;6.73;3.20;;;20.10;47.60;;;;;;5103111;28;20437;-65
2021/04/15 11:38:16;;;;;;;8.50;3.73;;;17.80;53.00;;;;;;5105877;28;20796;-64
2021/04/15 11:40:46;;;;;;;8.00;3.77;;;16.50;52.20;;;;;;5105990;28;20536;-63
2021/04/15 11:43:30;;;;;;;8.73;3.77;;;15.10;52.70;;;;;;5106352;28;20447;-63
2021/04/15 11:46:19;;;;;;;9.37;3.50;;;14.60;54.10;;;;;;5114727;28;20978;-63
2021/04/15 11:49:01;;;;;;;7.17;3.33;;;13.80;55.30;;;;;;5107329;28;20995;-63
2021/04/15 11:52:01;;;;;;;15.13;4.40;;;13.40;56.40;;;;;;5101878;28;20457;-63
2021/04/15 11:54:32;;;;;;;9.87;4.47;;;12.90;60.10;;;;;;5090959;28;20470;-63
2021/04/15 11:57:21;;;;;;;7.80;4.00;;;12.80;59.00;;;;;;5093342;28;20533;-62
2021/04/15 12:00:06;;;;;;;11.63;4.57;;;12.90;59.30;;;;;;5094815;28;20450;-64
2021/04/15 12:02:39;;;;;;;9.30;3.90;;;15.80;60.60;;;;;;5107859;28;20946;-66
2021/04/15 12:05:22;;;;;;;9.97;3.70;;;19.80;57.90;;;;;;5107024;27;20481;-63
2021/04/15 12:07:53;;;;;;;9.10;3.27;;;21.70;54.10;;;;;;5104569;28;20445;-62
2021/04/15 12:10:23;;;;;;;7.20;2.30;;;22.60;52.00;;;;;;5107591;28;20449;-63
2021/04/15 12:12:54;;;;;;;8.80;3.17;;;23.10;51.20;;;;;;5105204;28;20533;-64
2021/04/15 12:15:34;;;;;;;7.43;3.30;;;24.30;49.40;;;;;;5106664;28;20938;-63
2021/04/15 12:18:09;;;;;;;8.37;4.00;;;25.20;48.50;;;;;;5111313;27;20536;-62
2021/04/15 12:20:43;;;;;;;6.77;2.93;;;24.30;48.50;;;;;;5119096;27;20501;-63
2021/04/15 12:23:17;;;;;;;7.13;3.30;;;23.40;47.10;;;;;;5125195;27;20444;-62
2021/04/15 12:25:49;;;;;;;6.73;3.33;;;21.40;47.70;;;;;;5111899;27;20481;-62
2021/04/15 12:28:26;;;;;;;8.90;4.00;;;19.90;49.80;;;;;;5109090;28;20854;-63
2021/04/15 12:30:59;;;;;;;7.87;3.20;;;16.90;50.70;;;;;;5099357;28;20533;-63
2021/04/15 12:33:35;;;;;;;7.07;3.30;;;15.90;51.60;;;;;;5095843;28;20450;-62
2021/04/15 12:36:08;;;;;;;7.87;2.67;;;15.30;54.10;;;;;;5101583;28;20469;-62
2021/04/15 12:38:41;;;;;;;9.20;3.13;;;17.90;54.90;;;;;;5094026;28;20446;-65
2021/04/15 12:41:10;;;;;;;7.67;2.80;;;21.30;53.10;;;;;;5132303;27;20504;-64
2021/04/15 12:43:39;;;;;;;6.47;2.90;;;25.00;52.00;;;;;;5119840;27;20449;-65
2021/04/15 12:46:09;;;;;;;5.90;3.03;;;26.60;46.30;;;;;;5097635;28;20470;-63
2021/04/15 12:48:40;;;;;;;6.70;3.10;;;27.50;45.30;;;;;;5105951;27;20535;-63
2021/04/15 12:51:10;;;;;;;9.20;3.50;;;26.70;42.40;;;;;;5093179;28;20877;-63
2021/04/15 12:53:40;;;;;;;7.33;3.73;;;24.50;43.80;;;;;;5092309;28;20493;-63
2021/04/15 12:56:07;;;;;;;6.70;2.80;;;22.70;45.60;;;;;;5095256;28;20453;-63
2021/04/15 12:58:35;;;;;;;11.73;3.87;;;19.90;45.50;;;;;;5101407;28;20525;-63
2021/04/15 13:01:02;;;;;;;7.27;3.80;;;18.30;46.90;;;;;;5099509;28;20865;-62
2021/04/15 13:03:32;;;;;;;8.37;4.20;;;15.70;49.80;;;;;;5101022;28;20549;-62
2021/04/15 13:06:09;;;;;;;9.90;4.10;;;14.50;51.10;;;;;;5104153;28;20932;-62
2021/04/15 13:08:54;;;;;;;12.90;3.80;;;13.60;54.10;;;;;;5099973;28;20902;-63
2021/04/15 13:11:34;;;;;;;9.33;4.03;;;;;;;;;;5108345;28;20448;-62
2021/04/15 13:14:02;;;;;;;7.00;4.20;;;12.10;57.90;;;;;;5108575;28;20574;-63
2021/04/15 13:16:49;;;;;;;7.60;3.70;;;11.90;62.20;;;;;;5106236;28;20441;-64
2021/04/15 13:19:39;;;;;;;11.73;4.23;;;12.00;64.00;;;;;;5108506;27;20437;-62
2021/04/15 13:22:12;;;;;;;9.97;5.30;;;11.90;64.80;;;;;;5096581;28;20443;-62
2021/04/15 13:24:49;;;;;;;9.17;4.60;;;11.60;62.00;;;;;;5106027;28;20453;-62
2021/04/15 13:27:38;;;;;;;8.57;4.20;;;11.90;65.20;;;;;;5094698;28;20474;-64
2021/04/15 13:30:25;;;;;;;7.57;4.00;;;13.80;65.40;;;;;;5109043;28;20441;-63
2021/04/15 13:33:03;;;;;;;11.00;3.70;;;16.90;62.40;;;;;;5097639;28;20446;-63
2021/04/15 13:35:39;;;;;;;9.00;3.80;;;20.90;55.90;;;;;;5100203;28;20449;-64